Aeroporto :
LOGIN :

Iscrizione | Disclaimer

   EN    FR    IT 

 










Sommario :    VFR   VFR Marginale   IFR   IFR Intensivo   IFR Molto Intensivo
Visibilità : 
Base nubi : 
>= 8 km
>= 3000ft
5 / 8 km
1000 / 3000 ft
1500m / 5 km
500 / 1000 ft
800 / 1500m
200 / 500 ft
< 800m
< 200 ft
Simboli :   Temporali  Nebbia  Neve Forte  Precipitazioni Forti  Vento > 20 kt
SIGMETs :   Varie  Temporali  Ghiacco  Turbolenza  Onda orograficha  Ceneri Vulcaniche






- Altitudine del aeroporto : 277 ft
- Codice IATA : JER


EGJJ - Jersey

ULTIMO METAR :
  • 131220Z 23012KT 9999 SCT029 10/05 Q1002

METARs OBSOLETI :
  • 131150Z 24015KT 9999 FEW030 10/05 Q1002
  • 131120Z 27010KT 9999 FEW030 11/05 Q1003
  • 131050Z 26007KT 220V300 9999 FEW027 10/05 Q1004
  • 131020Z 30010KT 9999 VCSH FEW030 10/05 Q1004
  • 130950Z 31010KT 9999 FEW030 10/05 Q1004

TAF TAF EGJJ
Valido dal 13 a 12 ore il 13 a 21 ore UTC


131103Z 1312/1321 27015KT 9999 FEW018 SCT030
PROB40
TEMPO 1312/1317 7000 SHRA BKN015
BECMG 1315/1317 18025G38KT
TEMPO 1317/1319 4000 +RA BKN008
BECMG 1317/1319 26020G35KT
TEMPO 1319/1321 6000 SHRA BKN015CB
ATIS : +44 1534 498 073



MetMap, La meteo Aeronautica in un colpo d'occhio ! - Copyright ORBIFLY Dicembre 2007 - Disclaimer

ORBIFLY MET'MAP TEAM :

Programmazione e sviluppo : Alexandra Zaïnal
Concezione e sviluppo : Baudouin d'Aumeries
Co-Programmazione e sviluppo : Marc-Olivier Méhu
Supporto tecnico e logistico : Manuel Goepfert
Aiuto per la traduzione : Arnaldo La Scala

Contatto : metmap@orbifly.com




FONTI E CREDITI :

   NOAA